This is the latest recevied weather packets stored in our database for station/object KO4APQ. If no packets are shown the sender has not sent any weather packets the latest 1 day(s).
| Time | Temp. | Humidity | Pressure | Rain* | Wind** | Luminosity | Snow |
|---|---|---|---|---|---|---|---|
| 1778028959 | 21.11° C | 54% | 1014.3 hPa | 0 mm | 0 m/s | 0 W/m² | - |
| 1778028655 | 21.11° C | 48% | 1014.2 hPa | 0 mm | 0 m/s | 0 W/m² | - |
| 1778028352 | 20.56° C | 52% | 1014.1 hPa | 0 mm | 0.45 m/s, 186° | 0 W/m² | - |
| 1778028049 | 21.11° C | 55% | 1014.3 hPa | 0 mm | 0 m/s | 0 W/m² | - |
| 1778027745 | 21.67° C | 53% | 1014.2 hPa | 0 mm | 0 m/s | 0 W/m² | - |
| 1778027442 | 21.67° C | 47% | 1014.1 hPa | 0 mm | 0 m/s | 0 W/m² | - |
| 1778027137 | 22.22° C | 46% | 1014 hPa | 0 mm | 0 m/s | 0 W/m² | - |
| 1778026833 | 22.22° C | 47% | 1014 hPa | 0 mm | 0 m/s | 1 W/m² | - |
| 1778026530 | 22.22° C | 47% | 1014.1 hPa | 0 mm | 0 m/s | 1 W/m² | - |
| 1778026227 | 21.67° C | 46% | 1014.1 hPa | 0 mm | 0 m/s | 2 W/m² | - |
| 1778025925 | 21.67° C | 47% | 1014.2 hPa | 0 mm | 0 m/s | 4 W/m² | - |
| 1778025622 | 22.22° C | 49% | 1014.3 hPa | 0 mm | 0 m/s | 5 W/m² | - |
| 1778025320 | 22.22° C | 47% | 1014.3 hPa | 0 mm | 0 m/s | 8 W/m² | - |
| 1778025016 | 22.78° C | 48% | 1014.2 hPa | 0 mm | 0 m/s | 13 W/m² | - |
| 1778024714 | 22.78° C | 45% | 1014.2 hPa | 0 mm | 0 m/s | 14 W/m² | - |
| 1778024410 | 23.33° C | 47% | 1014.1 hPa | 0 mm | 0 m/s | 16 W/m² | - |
| 1778024108 | 23.33° C | 47% | 1014.3 hPa | 0 mm | 0 m/s | 18 W/m² | - |
| 1778023805 | 23.89° C | 42% | 1014.1 hPa | 0 mm | 0.45 m/s, 185° | 19 W/m² | - |
| 1778023503 | 23.89° C | 40% | 1014.2 hPa | 0 mm | 0 m/s | 30 W/m² | - |
| 1778023200 | 23.89° C | 40% | 1014.1 hPa | 0 mm | 0.45 m/s, 173° | 36 W/m² | - |
| 1778022897 | 24.44° C | 39% | 1014.2 hPa | 0 mm | 0.45 m/s, 196° | 59 W/m² | - |
| 1778022595 | 24.44° C | 39% | 1014.3 hPa | 0 mm | 0.45 m/s, 179° | 61 W/m² | - |
| 1778022293 | 25° C | 38% | 1014.3 hPa | 0 mm | 0.89 m/s, 224° | 81 W/m² | - |
| 1778021989 | 25° C | 37% | 1014.3 hPa | 0 mm | 2.68 m/s, 246° | 130 W/m² | - |
| 1778021686 | 24.44° C | 38% | 1014.2 hPa | 0 mm | 0.45 m/s, 198° | 149 W/m² | - |
* Rain latest hour (hover to see other rain measurements)
** Current wind speed in m/s (hover to see current wind gust speed)